sensor_id;sensor_type;location;lat;lon;timestamp;P1;durP1;ratioP1;P2;durP2;ratioP2
5900;SDS011;2976;49.764;9.796;2022-11-27T00:01:40;80.53;;;22.43;;
5900;SDS011;2976;49.764;9.796;2022-11-27T00:04:07;122.20;;;19.40;;
5900;SDS011;2976;49.764;9.796;2022-11-27T00:06:35;108.97;;;20.43;;
5900;SDS011;2976;49.764;9.796;2022-11-27T00:09:03;81.03;;;18.13;;
5900;SDS011;2976;49.764;9.796;2022-11-27T00:11:31;140.33;;;20.27;;
5900;SDS011;2976;49.764;9.796;2022-11-27T00:13:57;74.70;;;17.57;;
5900;SDS011;2976;49.764;9.796;2022-11-27T00:16:24;93.93;;;18.20;;
5900;SDS011;2976;49.764;9.796;2022-11-27T00:18:51;72.33;;;19.20;;
5900;SDS011;2976;49.764;9.796;2022-11-27T00:21:24;54.43;;;18.37;;
5900;SDS011;2976;49.764;9.796;2022-11-27T00:23:52;81.70;;;18.33;;
5900;SDS011;2976;49.764;9.796;2022-11-27T00:26:18;80.60;;;19.07;;
5900;SDS011;2976;49.764;9.796;2022-11-27T00:28:45;59.27;;;18.30;;
5900;SDS011;2976;49.764;9.796;2022-11-27T00:31:14;96.27;;;19.23;;
5900;SDS011;2976;49.764;9.796;2022-11-27T00:33:42;121.60;;;21.10;;
5900;SDS011;2976;49.764;9.796;2022-11-27T00:36:08;73.20;;;17.27;;
5900;SDS011;2976;49.764;9.796;2022-11-27T00:38:34;97.83;;;19.47;;
5900;SDS011;2976;49.764;9.796;2022-11-27T00:41:06;66.13;;;20.97;;
5900;SDS011;2976;49.764;9.796;2022-11-27T00:43:34;43.87;;;18.10;;
5900;SDS011;2976;49.764;9.796;2022-11-27T00:46:01;55.93;;;17.17;;
5900;SDS011;2976;49.764;9.796;2022-11-27T00:48:26;54.83;;;17.50;;
5900;SDS011;2976;49.764;9.796;2022-11-27T00:50:57;53.40;;;15.40;;
5900;SDS011;2976;49.764;9.796;2022-11-27T00:53:27;68.63;;;15.87;;
5900;SDS011;2976;49.764;9.796;2022-11-27T00:55:56;50.27;;;15.73;;
5900;SDS011;2976;49.764;9.796;2022-11-27T00:58:22;51.37;;;17.90;;
5900;SDS011;2976;49.764;9.796;2022-11-27T01:01:02;47.67;;;16.97;;
5900;SDS011;2976;49.764;9.796;2022-11-27T01:03:30;89.77;;;22.20;;
5900;SDS011;2976;49.764;9.796;2022-11-27T01:05:59;50.13;;;19.53;;
5900;SDS011;2976;49.764;9.796;2022-11-27T01:08:27;46.17;;;19.07;;
5900;SDS011;2976;49.764;9.796;2022-11-27T01:10:53;50.67;;;20.00;;
5900;SDS011;2976;49.764;9.796;2022-11-27T01:13:24;72.30;;;26.53;;
5900;SDS011;2976;49.764;9.796;2022-11-27T01:18:47;61.47;;;23.40;;
5900;SDS011;2976;49.764;9.796;2022-11-27T01:21:14;65.13;;;24.57;;
5900;SDS011;2976;49.764;9.796;2022-11-27T01:23:43;67.57;;;24.40;;
5900;SDS011;2976;49.764;9.796;2022-11-27T01:26:10;70.13;;;24.70;;
5900;SDS011;2976;49.764;9.796;2022-11-27T01:28:36;61.57;;;21.30;;
5900;SDS011;2976;49.764;9.796;2022-11-27T01:31:04;91.57;;;27.23;;
5900;SDS011;2976;49.764;9.796;2022-11-27T01:34:00;69.87;;;17.90;;
5900;SDS011;2976;49.764;9.796;2022-11-27T01:36:28;175.77;;;19.63;;
5900;SDS011;2976;49.764;9.796;2022-11-27T01:38:54;166.67;;;20.40;;
5900;SDS011;2976;49.764;9.796;2022-11-27T01:41:21;199.83;;;20.17;;
5900;SDS011;2976;49.764;9.796;2022-11-27T01:43:56;85.90;;;16.47;;
5900;SDS011;2976;49.764;9.796;2022-11-27T01:46:26;90.13;;;16.07;;
5900;SDS011;2976;49.764;9.796;2022-11-27T01:51:43;140.40;;;17.20;;
5900;SDS011;2976;49.764;9.796;2022-11-27T01:54:13;182.37;;;16.97;;
5900;SDS011;2976;49.764;9.796;2022-11-27T01:56:41;89.43;;;13.93;;
5900;SDS011;2976;49.764;9.796;2022-11-27T01:59:09;123.13;;;16.70;;
5900;SDS011;2976;49.764;9.796;2022-11-27T02:01:36;57.10;;;12.77;;
5900;SDS011;2976;49.764;9.796;2022-11-27T02:04:02;33.73;;;12.07;;
5900;SDS011;2976;49.764;9.796;2022-11-27T02:06:27;31.53;;;12.47;;
5900;SDS011;2976;49.764;9.796;2022-11-27T02:08:53;54.57;;;13.40;;
5900;SDS011;2976;49.764;9.796;2022-11-27T02:14:28;80.27;;;22.37;;
5900;SDS011;2976;49.764;9.796;2022-11-27T02:16:55;57.87;;;22.03;;
5900;SDS011;2976;49.764;9.796;2022-11-27T02:21:59;38.23;;;18.47;;
5900;SDS011;2976;49.764;9.796;2022-11-27T02:30:03;53.97;;;19.23;;
5900;SDS011;2976;49.764;9.796;2022-11-27T02:35:12;53.83;;;18.20;;
5900;SDS011;2976;49.764;9.796;2022-11-27T02:38:01;52.10;;;19.67;;
5900;SDS011;2976;49.764;9.796;2022-11-27T02:43:32;39.53;;;14.13;;
5900;SDS011;2976;49.764;9.796;2022-11-27T02:46:01;68.00;;;15.88;;
5900;SDS011;2976;49.764;9.796;2022-11-27T02:48:30;51.73;;;14.53;;
5900;SDS011;2976;49.764;9.796;2022-11-27T02:51:00;48.10;;;14.30;;
5900;SDS011;2976;49.764;9.796;2022-11-27T02:53:32;63.35;;;14.50;;
5900;SDS011;2976;49.764;9.796;2022-11-27T02:56:02;30.33;;;14.03;;
5900;SDS011;2976;49.764;9.796;2022-11-27T02:58:32;52.50;;;15.37;;
5900;SDS011;2976;49.764;9.796;2022-11-27T03:01:00;57.97;;;15.10;;
5900;SDS011;2976;49.764;9.796;2022-11-27T03:03:30;77.90;;;15.73;;
5900;SDS011;2976;49.764;9.796;2022-11-27T03:06:00;81.93;;;17.27;;
5900;SDS011;2976;49.764;9.796;2022-11-27T03:11:13;70.67;;;15.27;;
5900;SDS011;2976;49.764;9.796;2022-11-27T03:13:41;76.37;;;16.03;;
5900;SDS011;2976;49.764;9.796;2022-11-27T03:19:13;72.40;;;14.97;;
5900;SDS011;2976;49.764;9.796;2022-11-27T03:21:44;41.17;;;14.77;;
5900;SDS011;2976;49.764;9.796;2022-11-27T03:24:14;28.20;;;14.40;;
5900;SDS011;2976;49.764;9.796;2022-11-27T03:26:40;30.40;;;13.77;;
5900;SDS011;2976;49.764;9.796;2022-11-27T03:29:09;32.33;;;14.47;;
5900;SDS011;2976;49.764;9.796;2022-11-27T03:31:38;31.40;;;13.37;;
5900;SDS011;2976;49.764;9.796;2022-11-27T03:34:05;41.20;;;16.70;;
5900;SDS011;2976;49.764;9.796;2022-11-27T03:36:31;38.83;;;15.53;;
5900;SDS011;2976;49.764;9.796;2022-11-27T03:38:56;37.07;;;13.87;;
5900;SDS011;2976;49.764;9.796;2022-11-27T03:49:53;36.97;;;14.20;;
5900;SDS011;2976;49.764;9.796;2022-11-27T03:52:34;32.77;;;13.90;;
5900;SDS011;2976;49.764;9.796;2022-11-27T03:58:21;33.57;;;12.47;;
5900;SDS011;2976;49.764;9.796;2022-11-27T04:00:59;87.37;;;14.80;;
5900;SDS011;2976;49.764;9.796;2022-11-27T04:03:27;70.67;;;15.53;;
5900;SDS011;2976;49.764;9.796;2022-11-27T04:05:54;33.07;;;12.93;;
5900;SDS011;2976;49.764;9.796;2022-11-27T04:08:20;41.13;;;13.73;;
5900;SDS011;2976;49.764;9.796;2022-11-27T04:10:46;55.50;;;14.10;;
5900;SDS011;2976;49.764;9.796;2022-11-27T04:13:12;48.77;;;14.03;;
5900;SDS011;2976;49.764;9.796;2022-11-27T04:15:37;40.93;;;13.60;;
5900;SDS011;2976;49.764;9.796;2022-11-27T04:18:03;49.70;;;15.27;;
5900;SDS011;2976;49.764;9.796;2022-11-27T04:20:28;41.03;;;16.67;;
5900;SDS011;2976;49.764;9.796;2022-11-27T04:22:54;61.87;;;16.23;;
5900;SDS011;2976;49.764;9.796;2022-11-27T04:25:20;44.27;;;16.80;;
5900;SDS011;2976;49.764;9.796;2022-11-27T04:27:46;84.20;;;18.27;;
5900;SDS011;2976;49.764;9.796;2022-11-27T04:30:12;80.33;;;16.87;;
5900;SDS011;2976;49.764;9.796;2022-11-27T04:32:38;75.63;;;18.07;;
5900;SDS011;2976;49.764;9.796;2022-11-27T04:35:04;111.53;;;18.50;;
5900;SDS011;2976;49.764;9.796;2022-11-27T04:37:30;68.60;;;17.17;;
5900;SDS011;2976;49.764;9.796;2022-11-27T04:39:55;88.40;;;19.27;;
5900;SDS011;2976;49.764;9.796;2022-11-27T04:42:21;90.50;;;17.90;;
5900;SDS011;2976;49.764;9.796;2022-11-27T04:44:46;102.10;;;18.87;;
5900;SDS011;2976;49.764;9.796;2022-11-27T04:47:12;72.53;;;17.53;;
5900;SDS011;2976;49.764;9.796;2022-11-27T04:49:37;54.77;;;15.03;;
5900;SDS011;2976;49.764;9.796;2022-11-27T04:52:03;50.13;;;17.90;;
5900;SDS011;2976;49.764;9.796;2022-11-27T04:54:29;44.93;;;15.07;;
5900;SDS011;2976;49.764;9.796;2022-11-27T04:56:54;44.03;;;16.97;;
5900;SDS011;2976;49.764;9.796;2022-11-27T04:59:20;37.53;;;15.27;;
5900;SDS011;2976;49.764;9.796;2022-11-27T05:01:46;106.87;;;17.90;;
5900;SDS011;2976;49.764;9.796;2022-11-27T05:04:12;49.30;;;15.63;;
5900;SDS011;2976;49.764;9.796;2022-11-27T05:06:37;37.80;;;14.90;;
5900;SDS011;2976;49.764;9.796;2022-11-27T05:09:03;37.90;;;14.30;;
5900;SDS011;2976;49.764;9.796;2022-11-27T05:11:29;58.53;;;15.00;;
5900;SDS011;2976;49.764;9.796;2022-11-27T05:13:55;55.07;;;14.77;;
5900;SDS011;2976;49.764;9.796;2022-11-27T05:16:43;41.80;;;14.90;;
5900;SDS011;2976;49.764;9.796;2022-11-27T05:19:14;46.00;;;15.13;;
5900;SDS011;2976;49.764;9.796;2022-11-27T05:21:41;35.50;;;13.90;;
5900;SDS011;2976;49.764;9.796;2022-11-27T05:24:08;31.57;;;13.47;;
5900;SDS011;2976;49.764;9.796;2022-11-27T05:26:35;33.50;;;15.70;;
5900;SDS011;2976;49.764;9.796;2022-11-27T05:29:01;55.60;;;18.60;;
5900;SDS011;2976;49.764;9.796;2022-11-27T05:31:27;45.90;;;18.00;;
5900;SDS011;2976;49.764;9.796;2022-11-27T05:33:53;48.93;;;15.87;;
5900;SDS011;2976;49.764;9.796;2022-11-27T05:36:18;55.07;;;15.80;;
5900;SDS011;2976;49.764;9.796;2022-11-27T05:38:44;41.33;;;16.50;;
5900;SDS011;2976;49.764;9.796;2022-11-27T05:41:10;40.20;;;15.30;;
5900;SDS011;2976;49.764;9.796;2022-11-27T05:43:35;33.27;;;14.00;;
5900;SDS011;2976;49.764;9.796;2022-11-27T05:46:07;53.60;;;15.57;;
5900;SDS011;2976;49.764;9.796;2022-11-27T05:48:34;50.83;;;17.20;;
5900;SDS011;2976;49.764;9.796;2022-11-27T05:51:01;55.07;;;18.63;;
5900;SDS011;2976;49.764;9.796;2022-11-27T05:53:27;49.43;;;16.83;;
5900;SDS011;2976;49.764;9.796;2022-11-27T05:55:53;37.03;;;15.30;;
5900;SDS011;2976;49.764;9.796;2022-11-27T05:58:19;44.20;;;16.07;;
5900;SDS011;2976;49.764;9.796;2022-11-27T06:00:45;38.43;;;15.43;;
5900;SDS011;2976;49.764;9.796;2022-11-27T06:03:10;48.17;;;16.80;;
5900;SDS011;2976;49.764;9.796;2022-11-27T06:05:39;39.50;;;16.03;;
5900;SDS011;2976;49.764;9.796;2022-11-27T06:08:05;38.45;;;17.23;;
5900;SDS011;2976;49.764;9.796;2022-11-27T06:10:31;29.60;;;13.90;;
5900;SDS011;2976;49.764;9.796;2022-11-27T06:12:57;34.37;;;14.67;;
5900;SDS011;2976;49.764;9.796;2022-11-27T06:15:22;42.57;;;14.57;;
5900;SDS011;2976;49.764;9.796;2022-11-27T06:17:48;36.20;;;14.40;;
5900;SDS011;2976;49.764;9.796;2022-11-27T06:20:14;43.07;;;13.83;;
5900;SDS011;2976;49.764;9.796;2022-11-27T06:22:40;33.43;;;14.53;;
5900;SDS011;2976;49.764;9.796;2022-11-27T06:25:05;34.27;;;15.73;;
5900;SDS011;2976;49.764;9.796;2022-11-27T06:27:32;36.50;;;15.23;;
5900;SDS011;2976;49.764;9.796;2022-11-27T06:29:58;48.23;;;18.30;;
5900;SDS011;2976;49.764;9.796;2022-11-27T06:32:24;58.40;;;17.37;;
5900;SDS011;2976;49.764;9.796;2022-11-27T06:34:49;61.27;;;21.27;;
5900;SDS011;2976;49.764;9.796;2022-11-27T06:37:15;53.10;;;18.03;;
5900;SDS011;2976;49.764;9.796;2022-11-27T06:39:40;61.43;;;19.87;;
5900;SDS011;2976;49.764;9.796;2022-11-27T06:42:06;51.67;;;18.33;;
5900;SDS011;2976;49.764;9.796;2022-11-27T06:44:31;71.27;;;18.43;;
5900;SDS011;2976;49.764;9.796;2022-11-27T06:46:57;63.23;;;18.27;;
5900;SDS011;2976;49.764;9.796;2022-11-27T06:49:22;51.87;;;17.57;;
5900;SDS011;2976;49.764;9.796;2022-11-27T06:51:48;46.53;;;18.60;;
5900;SDS011;2976;49.764;9.796;2022-11-27T06:54:14;75.53;;;21.50;;
5900;SDS011;2976;49.764;9.796;2022-11-27T06:56:40;64.77;;;19.00;;
5900;SDS011;2976;49.764;9.796;2022-11-27T06:59:06;55.20;;;17.50;;
5900;SDS011;2976;49.764;9.796;2022-11-27T07:01:31;57.87;;;18.87;;
5900;SDS011;2976;49.764;9.796;2022-11-27T07:03:58;57.23;;;19.30;;
5900;SDS011;2976;49.764;9.796;2022-11-27T07:06:24;57.87;;;17.93;;
5900;SDS011;2976;49.764;9.796;2022-11-27T07:08:51;53.87;;;17.77;;
5900;SDS011;2976;49.764;9.796;2022-11-27T07:11:19;84.17;;;21.57;;
5900;SDS011;2976;49.764;9.796;2022-11-27T07:13:47;92.17;;;23.30;;
5900;SDS011;2976;49.764;9.796;2022-11-27T07:16:13;82.27;;;21.87;;
5900;SDS011;2976;49.764;9.796;2022-11-27T07:18:41;89.83;;;22.53;;
5900;SDS011;2976;49.764;9.796;2022-11-27T07:21:08;74.63;;;21.83;;
5900;SDS011;2976;49.764;9.796;2022-11-27T07:23:34;64.43;;;20.93;;
5900;SDS011;2976;49.764;9.796;2022-11-27T07:28:39;57.00;;;19.33;;
5900;SDS011;2976;49.764;9.796;2022-11-27T07:31:07;47.47;;;16.93;;
5900;SDS011;2976;49.764;9.796;2022-11-27T07:33:33;37.87;;;16.17;;
5900;SDS011;2976;49.764;9.796;2022-11-27T07:38:46;37.03;;;14.93;;
5900;SDS011;2976;49.764;9.796;2022-11-27T07:41:12;53.17;;;15.10;;
5900;SDS011;2976;49.764;9.796;2022-11-27T07:43:40;58.50;;;16.47;;
5900;SDS011;2976;49.764;9.796;2022-11-27T07:46:25;41.93;;;15.70;;
5900;SDS011;2976;49.764;9.796;2022-11-27T07:48:50;36.20;;;14.10;;
5900;SDS011;2976;49.764;9.796;2022-11-27T07:51:17;46.33;;;16.53;;
5900;SDS011;2976;49.764;9.796;2022-11-27T07:53:44;41.40;;;15.93;;
5900;SDS011;2976;49.764;9.796;2022-11-27T07:56:12;47.83;;;15.10;;
5900;SDS011;2976;49.764;9.796;2022-11-27T07:58:39;52.83;;;16.40;;
5900;SDS011;2976;49.764;9.796;2022-11-27T08:01:10;29.60;;;14.27;;
5900;SDS011;2976;49.764;9.796;2022-11-27T08:03:37;52.60;;;18.60;;
5900;SDS011;2976;49.764;9.796;2022-11-27T08:06:03;61.77;;;20.10;;
5900;SDS011;2976;49.764;9.796;2022-11-27T08:08:29;42.87;;;17.53;;
5900;SDS011;2976;49.764;9.796;2022-11-27T08:10:55;60.60;;;19.83;;
5900;SDS011;2976;49.764;9.796;2022-11-27T08:13:20;44.03;;;17.97;;
5900;SDS011;2976;49.764;9.796;2022-11-27T08:15:46;49.40;;;18.70;;
5900;SDS011;2976;49.764;9.796;2022-11-27T08:18:12;51.17;;;21.17;;
5900;SDS011;2976;49.764;9.796;2022-11-27T08:20:37;51.60;;;20.33;;
5900;SDS011;2976;49.764;9.796;2022-11-27T08:23:03;45.83;;;19.27;;
5900;SDS011;2976;49.764;9.796;2022-11-27T08:25:29;46.70;;;20.33;;
5900;SDS011;2976;49.764;9.796;2022-11-27T08:27:54;49.00;;;20.80;;
5900;SDS011;2976;49.764;9.796;2022-11-27T08:30:20;44.80;;;18.77;;
5900;SDS011;2976;49.764;9.796;2022-11-27T08:32:47;58.37;;;20.93;;
5900;SDS011;2976;49.764;9.796;2022-11-27T08:35:13;47.80;;;20.30;;
5900;SDS011;2976;49.764;9.796;2022-11-27T08:37:39;42.47;;;17.80;;
5900;SDS011;2976;49.764;9.796;2022-11-27T08:40:04;49.60;;;20.63;;
5900;SDS011;2976;49.764;9.796;2022-11-27T08:42:30;50.90;;;20.87;;
5900;SDS011;2976;49.764;9.796;2022-11-27T08:44:56;50.60;;;19.70;;
5900;SDS011;2976;49.764;9.796;2022-11-27T08:47:21;42.13;;;19.40;;
5900;SDS011;2976;49.764;9.796;2022-11-27T08:49:47;51.63;;;20.70;;
5900;SDS011;2976;49.764;9.796;2022-11-27T08:52:13;41.77;;;19.13;;
5900;SDS011;2976;49.764;9.796;2022-11-27T08:54:38;63.23;;;17.53;;
5900;SDS011;2976;49.764;9.796;2022-11-27T08:57:04;44.07;;;18.37;;
5900;SDS011;2976;49.764;9.796;2022-11-27T08:59:29;45.47;;;18.30;;
5900;SDS011;2976;49.764;9.796;2022-11-27T09:01:55;38.77;;;18.53;;
5900;SDS011;2976;49.764;9.796;2022-11-27T09:04:20;33.43;;;17.13;;
5900;SDS011;2976;49.764;9.796;2022-11-27T09:06:46;35.83;;;17.33;;
5900;SDS011;2976;49.764;9.796;2022-11-27T09:09:13;35.60;;;17.23;;
5900;SDS011;2976;49.764;9.796;2022-11-27T09:11:39;41.27;;;23.43;;
5900;SDS011;2976;49.764;9.796;2022-11-27T09:14:05;34.33;;;18.77;;
5900;SDS011;2976;49.764;9.796;2022-11-27T09:16:33;43.37;;;23.03;;
5900;SDS011;2976;49.764;9.796;2022-11-27T09:18:59;30.40;;;15.30;;
5900;SDS011;2976;49.764;9.796;2022-11-27T09:21:26;30.83;;;15.17;;
5900;SDS011;2976;49.764;9.796;2022-11-27T09:23:55;28.77;;;14.57;;
5900;SDS011;2976;49.764;9.796;2022-11-27T09:26:21;24.43;;;14.30;;
5900;SDS011;2976;49.764;9.796;2022-11-27T09:28:49;23.77;;;13.00;;
5900;SDS011;2976;49.764;9.796;2022-11-27T09:31:17;24.00;;;13.60;;
5900;SDS011;2976;49.764;9.796;2022-11-27T09:33:44;20.40;;;11.90;;
5900;SDS011;2976;49.764;9.796;2022-11-27T09:36:11;21.37;;;13.57;;
5900;SDS011;2976;49.764;9.796;2022-11-27T09:38:40;24.60;;;13.10;;
5900;SDS011;2976;49.764;9.796;2022-11-27T09:43:44;17.40;;;10.23;;
5900;SDS011;2976;49.764;9.796;2022-11-27T09:46:20;15.97;;;11.00;;
5900;SDS011;2976;49.764;9.796;2022-11-27T09:48:52;22.93;;;12.80;;
5900;SDS011;2976;49.764;9.796;2022-11-27T09:51:26;17.53;;;10.40;;
5900;SDS011;2976;49.764;9.796;2022-11-27T09:56:44;16.90;;;10.93;;
5900;SDS011;2976;49.764;9.796;2022-11-27T09:59:15;20.43;;;10.27;;
5900;SDS011;2976;49.764;9.796;2022-11-27T10:01:45;17.27;;;11.57;;
5900;SDS011;2976;49.764;9.796;2022-11-27T10:04:11;16.17;;;10.40;;
5900;SDS011;2976;49.764;9.796;2022-11-27T10:09:51;20.17;;;11.43;;
5900;SDS011;2976;49.764;9.796;2022-11-27T10:17:46;18.93;;;11.37;;
5900;SDS011;2976;49.764;9.796;2022-11-27T10:20:34;20.40;;;10.93;;
5900;SDS011;2976;49.764;9.796;2022-11-27T10:23:17;31.07;;;13.60;;
5900;SDS011;2976;49.764;9.796;2022-11-27T10:25:51;34.30;;;13.77;;
5900;SDS011;2976;49.764;9.796;2022-11-27T10:31:21;35.23;;;17.27;;
5900;SDS011;2976;49.764;9.796;2022-11-27T10:33:53;30.63;;;13.50;;
5900;SDS011;2976;49.764;9.796;2022-11-27T10:36:26;31.47;;;14.43;;
5900;SDS011;2976;49.764;9.796;2022-11-27T10:39:00;21.50;;;11.90;;
5900;SDS011;2976;49.764;9.796;2022-11-27T10:41:32;27.23;;;13.60;;
5900;SDS011;2976;49.764;9.796;2022-11-27T10:47:07;22.27;;;12.87;;
5900;SDS011;2976;49.764;9.796;2022-11-27T10:49:38;24.00;;;12.30;;
5900;SDS011;2976;49.764;9.796;2022-11-27T10:52:05;27.20;;;13.43;;
5900;SDS011;2976;49.764;9.796;2022-11-27T10:54:37;28.20;;;14.17;;
5900;SDS011;2976;49.764;9.796;2022-11-27T11:00:12;26.70;;;13.43;;
5900;SDS011;2976;49.764;9.796;2022-11-27T11:02:43;24.70;;;14.00;;
5900;SDS011;2976;49.764;9.796;2022-11-27T11:05:21;24.53;;;12.93;;
5900;SDS011;2976;49.764;9.796;2022-11-27T11:07:53;26.23;;;16.07;;
5900;SDS011;2976;49.764;9.796;2022-11-27T11:10:36;26.57;;;15.13;;
5900;SDS011;2976;49.764;9.796;2022-11-27T11:15:52;27.93;;;15.30;;
5900;SDS011;2976;49.764;9.796;2022-11-27T11:18:24;26.63;;;13.50;;
5900;SDS011;2976;49.764;9.796;2022-11-27T11:20:52;28.73;;;14.90;;
5900;SDS011;2976;49.764;9.796;2022-11-27T11:23:21;26.30;;;14.97;;
5900;SDS011;2976;49.764;9.796;2022-11-27T11:25:52;26.40;;;15.90;;
5900;SDS011;2976;49.764;9.796;2022-11-27T11:28:20;31.10;;;16.60;;
5900;SDS011;2976;49.764;9.796;2022-11-27T11:30:55;29.83;;;16.13;;
5900;SDS011;2976;49.764;9.796;2022-11-27T11:33:23;27.30;;;16.43;;
5900;SDS011;2976;49.764;9.796;2022-11-27T11:35:51;27.20;;;15.07;;
5900;SDS011;2976;49.764;9.796;2022-11-27T11:38:20;24.17;;;15.00;;
5900;SDS011;2976;49.764;9.796;2022-11-27T11:41:03;22.23;;;14.87;;
5900;SDS011;2976;49.764;9.796;2022-11-27T11:43:31;24.70;;;15.23;;
5900;SDS011;2976;49.764;9.796;2022-11-27T11:46:04;26.13;;;16.50;;
5900;SDS011;2976;49.764;9.796;2022-11-27T11:48:50;26.17;;;17.37;;
5900;SDS011;2976;49.764;9.796;2022-11-27T11:51:18;27.50;;;16.93;;
5900;SDS011;2976;49.764;9.796;2022-11-27T11:54:05;27.13;;;16.30;;
5900;SDS011;2976;49.764;9.796;2022-11-27T11:56:42;26.90;;;17.20;;
5900;SDS011;2976;49.764;9.796;2022-11-27T12:07:22;22.53;;;14.30;;
5900;SDS011;2976;49.764;9.796;2022-11-27T12:15:24;22.60;;;14.50;;
5900;SDS011;2976;49.764;9.796;2022-11-27T12:21:16;21.37;;;13.80;;
5900;SDS011;2976;49.764;9.796;2022-11-27T12:24:02;19.33;;;14.03;;
5900;SDS011;2976;49.764;9.796;2022-11-27T12:26:58;22.63;;;14.60;;
5900;SDS011;2976;49.764;9.796;2022-11-27T12:29:57;18.73;;;12.33;;
5900;SDS011;2976;49.764;9.796;2022-11-27T12:32:49;18.33;;;11.97;;
5900;SDS011;2976;49.764;9.796;2022-11-27T12:35:41;14.37;;;11.67;;
5900;SDS011;2976;49.764;9.796;2022-11-27T12:43:52;14.30;;;9.27;;
5900;SDS011;2976;49.764;9.796;2022-11-27T12:46:28;11.83;;;9.77;;
5900;SDS011;2976;49.764;9.796;2022-11-27T12:49:19;15.23;;;10.50;;
5900;SDS011;2976;49.764;9.796;2022-11-27T12:52:26;13.20;;;9.70;;
5900;SDS011;2976;49.764;9.796;2022-11-27T12:54:57;10.50;;;8.10;;
5900;SDS011;2976;49.764;9.796;2022-11-27T12:57:39;15.93;;;8.20;;
5900;SDS011;2976;49.764;9.796;2022-11-27T13:00:38;10.70;;;7.20;;
5900;SDS011;2976;49.764;9.796;2022-11-27T13:03:15;10.37;;;7.17;;
5900;SDS011;2976;49.764;9.796;2022-11-27T13:05:56;12.00;;;7.90;;
5900;SDS011;2976;49.764;9.796;2022-11-27T13:11:27;10.87;;;7.30;;
5900;SDS011;2976;49.764;9.796;2022-11-27T13:14:02;17.83;;;6.43;;
5900;SDS011;2976;49.764;9.796;2022-11-27T13:17:17;11.53;;;6.27;;
5900;SDS011;2976;49.764;9.796;2022-11-27T13:19:27;8.40;;;6.73;;
5900;SDS011;2976;49.764;9.796;2022-11-27T13:22:13;11.67;;;8.03;;
5900;SDS011;2976;49.764;9.796;2022-11-27T13:24:55;8.47;;;6.17;;
5900;SDS011;2976;49.764;9.796;2022-11-27T13:27:24;9.20;;;6.40;;
5900;SDS011;2976;49.764;9.796;2022-11-27T13:30:05;11.37;;;7.13;;
5900;SDS011;2976;49.764;9.796;2022-11-27T13:32:36;10.00;;;6.20;;
5900;SDS011;2976;49.764;9.796;2022-11-27T13:35:22;8.63;;;6.43;;
5900;SDS011;2976;49.764;9.796;2022-11-27T13:38:03;11.83;;;7.10;;
5900;SDS011;2976;49.764;9.796;2022-11-27T13:40:43;10.53;;;7.50;;
5900;SDS011;2976;49.764;9.796;2022-11-27T13:43:17;10.17;;;8.00;;
5900;SDS011;2976;49.764;9.796;2022-11-27T13:45:59;12.07;;;7.37;;
5900;SDS011;2976;49.764;9.796;2022-11-27T13:48:30;10.80;;;7.80;;
5900;SDS011;2976;49.764;9.796;2022-11-27T13:50:58;13.30;;;9.27;;
5900;SDS011;2976;49.764;9.796;2022-11-27T13:53:31;22.53;;;11.97;;
5900;SDS011;2976;49.764;9.796;2022-11-27T13:55:59;16.23;;;8.60;;
5900;SDS011;2976;49.764;9.796;2022-11-27T13:58:29;10.93;;;7.63;;
5900;SDS011;2976;49.764;9.796;2022-11-27T14:01:09;13.60;;;9.07;;
5900;SDS011;2976;49.764;9.796;2022-11-27T14:03:39;11.63;;;8.13;;
5900;SDS011;2976;49.764;9.796;2022-11-27T14:06:26;11.73;;;7.83;;
5900;SDS011;2976;49.764;9.796;2022-11-27T14:08:53;12.27;;;7.37;;
5900;SDS011;2976;49.764;9.796;2022-11-27T14:11:37;10.67;;;7.43;;
5900;SDS011;2976;49.764;9.796;2022-11-27T14:16:40;12.00;;;7.53;;
5900;SDS011;2976;49.764;9.796;2022-11-27T14:19:21;13.57;;;8.47;;
5900;SDS011;2976;49.764;9.796;2022-11-27T14:21:52;11.23;;;7.33;;
5900;SDS011;2976;49.764;9.796;2022-11-27T14:27:17;12.70;;;8.10;;
5900;SDS011;2976;49.764;9.796;2022-11-27T14:29:44;9.80;;;7.27;;
5900;SDS011;2976;49.764;9.796;2022-11-27T14:32:11;19.60;;;11.57;;
5900;SDS011;2976;49.764;9.796;2022-11-27T14:34:38;17.80;;;10.27;;
5900;SDS011;2976;49.764;9.796;2022-11-27T14:37:04;17.40;;;10.77;;
5900;SDS011;2976;49.764;9.796;2022-11-27T14:39:33;31.73;;;16.30;;
5900;SDS011;2976;49.764;9.796;2022-11-27T14:42:02;15.97;;;10.80;;
5900;SDS011;2976;49.764;9.796;2022-11-27T14:44:29;12.73;;;9.43;;
5900;SDS011;2976;49.764;9.796;2022-11-27T14:46:55;15.73;;;9.57;;
5900;SDS011;2976;49.764;9.796;2022-11-27T14:49:25;16.60;;;9.40;;
5900;SDS011;2976;49.764;9.796;2022-11-27T14:51:52;13.13;;;8.90;;
5900;SDS011;2976;49.764;9.796;2022-11-27T14:54:33;14.53;;;10.70;;
5900;SDS011;2976;49.764;9.796;2022-11-27T14:57:01;15.50;;;10.00;;
5900;SDS011;2976;49.764;9.796;2022-11-27T14:59:29;18.10;;;12.10;;
5900;SDS011;2976;49.764;9.796;2022-11-27T15:04:36;18.83;;;12.00;;
5900;SDS011;2976;49.764;9.796;2022-11-27T15:07:04;19.43;;;11.97;;
5900;SDS011;2976;49.764;9.796;2022-11-27T15:09:31;18.50;;;10.80;;
5900;SDS011;2976;49.764;9.796;2022-11-27T15:12:01;18.97;;;11.20;;
5900;SDS011;2976;49.764;9.796;2022-11-27T15:14:31;17.03;;;10.40;;
5900;SDS011;2976;49.764;9.796;2022-11-27T15:16:57;16.10;;;10.20;;
5900;SDS011;2976;49.764;9.796;2022-11-27T15:19:27;20.40;;;11.23;;
5900;SDS011;2976;49.764;9.796;2022-11-27T15:21:59;18.70;;;11.30;;
5900;SDS011;2976;49.764;9.796;2022-11-27T15:24:32;20.53;;;11.83;;
5900;SDS011;2976;49.764;9.796;2022-11-27T15:27:12;19.97;;;11.47;;
5900;SDS011;2976;49.764;9.796;2022-11-27T15:32:18;23.10;;;13.33;;
5900;SDS011;2976;49.764;9.796;2022-11-27T15:34:46;20.07;;;12.10;;
5900;SDS011;2976;49.764;9.796;2022-11-27T15:37:22;22.90;;;13.37;;
5900;SDS011;2976;49.764;9.796;2022-11-27T15:39:53;19.07;;;12.07;;
5900;SDS011;2976;49.764;9.796;2022-11-27T15:42:19;33.67;;;14.27;;
5900;SDS011;2976;49.764;9.796;2022-11-27T15:44:46;21.67;;;13.07;;
5900;SDS011;2976;49.764;9.796;2022-11-27T15:49:46;22.50;;;12.77;;
5900;SDS011;2976;49.764;9.796;2022-11-27T15:52:12;21.07;;;13.33;;
5900;SDS011;2976;49.764;9.796;2022-11-27T15:54:38;22.93;;;13.73;;
5900;SDS011;2976;49.764;9.796;2022-11-27T15:57:03;24.20;;;13.83;;
5900;SDS011;2976;49.764;9.796;2022-11-27T15:59:29;23.90;;;13.50;;
5900;SDS011;2976;49.764;9.796;2022-11-27T16:01:54;26.13;;;12.37;;
5900;SDS011;2976;49.764;9.796;2022-11-27T16:04:21;26.63;;;14.30;;
5900;SDS011;2976;49.764;9.796;2022-11-27T16:06:47;22.20;;;13.47;;
5900;SDS011;2976;49.764;9.796;2022-11-27T16:09:13;27.10;;;13.70;;
5900;SDS011;2976;49.764;9.796;2022-11-27T16:11:38;22.33;;;14.47;;
5900;SDS011;2976;49.764;9.796;2022-11-27T16:14:04;24.30;;;14.73;;
5900;SDS011;2976;49.764;9.796;2022-11-27T16:16:29;28.27;;;14.20;;
5900;SDS011;2976;49.764;9.796;2022-11-27T16:18:56;23.33;;;14.20;;
5900;SDS011;2976;49.764;9.796;2022-11-27T16:21:23;24.87;;;13.17;;
5900;SDS011;2976;49.764;9.796;2022-11-27T16:23:49;24.13;;;13.43;;
5900;SDS011;2976;49.764;9.796;2022-11-27T16:26:15;21.87;;;14.70;;
5900;SDS011;2976;49.764;9.796;2022-11-27T16:28:41;25.87;;;14.37;;
5900;SDS011;2976;49.764;9.796;2022-11-27T16:31:08;28.50;;;16.33;;
5900;SDS011;2976;49.764;9.796;2022-11-27T16:33:35;27.90;;;17.83;;
5900;SDS011;2976;49.764;9.796;2022-11-27T16:36:21;27.47;;;16.30;;
5900;SDS011;2976;49.764;9.796;2022-11-27T16:38:47;27.17;;;15.53;;
5900;SDS011;2976;49.764;9.796;2022-11-27T16:41:15;24.97;;;14.00;;
5900;SDS011;2976;49.764;9.796;2022-11-27T16:43:43;22.27;;;13.60;;
5900;SDS011;2976;49.764;9.796;2022-11-27T16:46:12;24.20;;;13.73;;
5900;SDS011;2976;49.764;9.796;2022-11-27T16:48:43;23.03;;;15.13;;
5900;SDS011;2976;49.764;9.796;2022-11-27T16:53:39;22.73;;;14.60;;
5900;SDS011;2976;49.764;9.796;2022-11-27T16:56:07;29.60;;;13.30;;